Time;durP1;ratioP1;P1;durP2;ratioP2;P2;SDS_P1;SDS_P2;PMS_P1;PMS_P2;Temp;Humidity;BMP_temperature;BMP_pressure;BME280_temperature;BME280_humidity;BME280_pressure;Samples;Min_cycle;Max_cycle;Signal;HPM_P1;HPM_P2
2023/08/09 00:02:15;;;;;;;4.27;3.43;;;;;;;;;;5012143;28;20888;-53
2023/08/09 00:04:42;;;;;;;3.53;1.40;;;;;;;;;;5012778;28;20447;-53
2023/08/09 00:07:11;;;;;;;2.73;1.67;;;;;;;;;;5012051;28;20907;-54
2023/08/09 00:09:38;;;;;;;3.00;1.50;;;;;;;;;;5012104;28;20546;-53
2023/08/09 00:12:06;;;;;;;4.17;1.67;;;;;;;;;;5012198;28;20874;-54
2023/08/09 00:14:33;;;;;;;3.20;1.83;;;;;;;;;;5012355;28;20451;-54
2023/08/09 00:17:00;;;;;;;3.00;1.70;;;;;;;;;;5011825;28;20535;-54
2023/08/09 00:19:28;;;;;;;2.40;1.50;;;;;;;;;;5011118;28;20479;-54
2023/08/09 00:21:55;;;;;;;2.57;1.47;;;;;;;;;;5011766;28;20486;-54
2023/08/09 00:24:25;;;;;;;2.57;1.60;;;;;;;;;;5012082;28;20451;-54
2023/08/09 00:26:52;;;;;;;3.30;1.77;;;;;;;;;;5012070;28;20483;-54
2023/08/09 00:29:19;;;;;;;2.13;1.40;;;;;;;;;;5011186;28;20525;-54
2023/08/09 00:31:46;;;;;;;2.50;1.70;;;;;;;;;;5011634;28;20530;-54
2023/08/09 00:34:13;;;;;;;2.20;1.63;;;;;;;;;;5012095;28;20454;-53
2023/08/09 00:36:41;;;;;;;2.90;1.70;;;;;;;;;;5011957;28;20467;-53
2023/08/09 00:39:08;;;;;;;3.60;1.70;;;;;;;;;;5011945;28;20530;-54
2023/08/09 00:41:37;;;;;;;3.43;1.50;;;;;;;;;;5011909;28;20471;-54
2023/08/09 00:44:04;;;;;;;2.43;1.43;;;;;;;;;;5011737;28;20448;-54
2023/08/09 00:46:31;;;;;;;3.17;2.03;;;;;;;;;;5010762;28;20475;-53
2023/08/09 00:48:58;;;;;;;2.63;1.60;;;;;;;;;;5012401;28;20479;-54
2023/08/09 00:51:26;;;;;;;3.13;1.60;;;;;;;;;;5010843;28;20518;-53
2023/08/09 00:53:53;;;;;;;2.77;1.60;;;;;;;;;;5011777;28;20453;-54
2023/08/09 00:56:20;;;;;;;5.67;1.80;;;;;;;;;;5005087;28;20479;-54
2023/08/09 00:58:49;;;;;;;3.33;1.80;;;;;;;;;;5011302;28;20571;-54
2023/08/09 01:01:16;;;;;;;3.50;1.50;;;;;;;;;;5011411;28;21047;-53
2023/08/09 01:03:44;;;;;;;3.67;1.67;;;;;;;;;;5010768;28;20531;-54
2023/08/09 01:06:14;;;;;;;2.80;1.70;;;;;;;;;;5010191;28;20447;-53
2023/08/09 01:08:45;;;;;;;2.50;1.53;;;;;;;;;;5011675;28;20796;-54
2023/08/09 01:11:17;;;;;;;5.03;1.40;;;;;;;;;;5011036;28;20482;-54
2023/08/09 01:13:46;;;;;;;5.53;1.67;;;;;;;;;;5010204;28;20569;-54
2023/08/09 01:16:15;;;;;;;3.00;2.00;;;;;;;;;;5010842;28;20523;-54
2023/08/09 01:18:43;;;;;;;2.47;1.30;;;;;;;;;;5010722;28;20522;-54
2023/08/09 01:21:10;;;;;;;3.80;1.30;;;;;;;;;;5010401;28;20474;-53
2023/08/09 01:23:39;;;;;;;4.00;1.90;;;;;;;;;;5011062;28;20530;-54
2023/08/09 01:26:06;;;;;;;4.20;1.70;;;;;;;;;;5010947;28;20535;-54
2023/08/09 01:28:34;;;;;;;2.47;1.63;;;;;;;;;;5010656;28;20514;-54
2023/08/09 01:31:01;;;;;;;2.83;1.63;;;;;;;;;;5010628;28;20491;-53
2023/08/09 01:33:29;;;;;;;2.53;1.67;;;;;;;;;;5010901;28;20797;-54
2023/08/09 01:35:58;;;;;;;3.07;1.50;;;;;;;;;;5010747;28;20443;-54
2023/08/09 01:38:27;;;;;;;2.60;1.63;;;;;;;;;;5010907;28;20511;-54
2023/08/09 01:40:56;;;;;;;2.77;1.50;;;;;;;;;;5010536;28;20557;-53
2023/08/09 01:43:24;;;;;;;2.80;1.73;;;;;;;;;;5010240;28;20450;-54
2023/08/09 01:45:51;;;;;;;2.90;1.60;;;;;;;;;;5010712;28;20493;-53
2023/08/09 01:48:19;;;;;;;3.00;1.70;;;;;;;;;;5007315;28;20479;-53
2023/08/09 01:50:46;;;;;;;3.33;1.87;;;;;;;;;;5010152;28;20894;-54
2023/08/09 01:53:14;;;;;;;3.67;1.80;;;;;;;;;;5010844;28;20494;-53
2023/08/09 01:55:41;;;;;;;2.13;1.40;;;;;;;;;;5010440;28;20509;-54
2023/08/09 01:58:10;;;;;;;2.80;1.70;;;;;;;;;;5010640;28;20455;-54
2023/08/09 02:00:37;;;;;;;4.00;1.60;;;;;;;;;;5014536;28;20550;-54
2023/08/09 02:03:06;;;;;;;2.50;1.77;;;;;;;;;;5014586;28;20537;-55
2023/08/09 02:05:33;;;;;;;2.40;1.17;;;;;;;;;;5013693;28;20444;-54
2023/08/09 02:08:01;;;;;;;4.70;2.03;;;;;;;;;;5014518;28;20502;-53
2023/08/09 02:10:28;;;;;;;4.10;1.93;;;;;;;;;;5014530;28;20557;-54
2023/08/09 02:12:55;;;;;;;3.60;2.20;;;;;;;;;;5014248;28;20596;-53
2023/08/09 02:15:24;;;;;;;3.13;1.67;;;;;;;;;;5014421;28;20935;-55
2023/08/09 02:17:52;;;;;;;2.60;1.73;;;;;;;;;;5013788;28;20447;-54
2023/08/09 02:20:20;;;;;;;2.70;1.60;;;;;;;;;;5024138;23;20523;-90
2023/08/09 02:22:48;;;;;;;3.07;1.90;;;;;;;;;;5016296;28;20459;-90
2023/08/09 02:25:15;;;;;;;3.00;2.00;;;;;;;;;;5016232;28;20502;-90
2023/08/09 02:27:46;;;;;;;3.37;2.00;;;;;;;;;;5001513;28;20523;-90
2023/08/09 02:30:14;;;;;;;2.53;1.70;;;;;;;;;;5015199;28;20463;-91
2023/08/09 02:32:43;;;;;;;3.40;1.90;;;;;;;;;;5016335;28;20474;-90
2023/08/09 02:35:11;;;;;;;2.50;1.67;;;;;;;;;;5042461;23;20631;-56
2023/08/09 02:37:38;;;;;;;3.30;2.00;;;;;;;;;;5033720;28;20517;-56
2023/08/09 02:40:06;;;;;;;3.50;1.90;;;;;;;;;;5033305;28;20466;-56
2023/08/09 02:42:34;;;;;;;4.40;2.27;;;;;;;;;;5033727;28;20446;-58
2023/08/09 02:45:01;;;;;;;4.13;2.10;;;;;;;;;;5033163;28;20524;-56
2023/08/09 02:47:28;;;;;;;3.60;2.50;;;;;;;;;;5033357;28;20962;-58
2023/08/09 02:49:57;;;;;;;5.37;2.23;;;;;;;;;;5032924;28;21009;-55
2023/08/09 02:52:24;;;;;;;4.37;2.50;;;;;;;;;;5032797;28;20890;-55
2023/08/09 02:54:52;;;;;;;2.30;1.87;;;;;;;;;;5033371;28;20528;-55
2023/08/09 02:57:19;;;;;;;3.20;2.03;;;;;;;;;;5033404;28;20445;-57
2023/08/09 02:59:46;;;;;;;3.33;2.10;;;;;;;;;;5032853;28;20573;-56
2023/08/09 03:02:14;;;;;;;3.50;2.20;;;;;;;;;;5033066;28;20469;-52
2023/08/09 03:04:42;;;;;;;3.60;2.10;;;;;;;;;;5032889;28;20537;-56
2023/08/09 03:07:10;;;;;;;4.30;2.87;;;;;;;;;;5032299;28;20446;-54
2023/08/09 03:09:38;;;;;;;3.37;2.10;;;;;;;;;;5032324;28;20443;-53
2023/08/09 03:12:06;;;;;;;2.93;2.20;;;;;;;;;;5032769;28;20450;-54
2023/08/09 03:14:34;;;;;;;4.73;1.83;;;;;;;;;;5032905;28;20553;-56
2023/08/09 03:17:01;;;;;;;2.93;1.90;;;;;;;;;;5033038;28;20478;-56
2023/08/09 03:19:28;;;;;;;3.33;2.03;;;;;;;;;;5031766;28;20489;-56
2023/08/09 03:21:55;;;;;;;3.17;1.93;;;;;;;;;;5032885;28;20442;-56
2023/08/09 03:24:24;;;;;;;2.63;1.67;;;;;;;;;;5032859;28;20454;-54
2023/08/09 03:26:51;;;;;;;4.80;1.97;;;;;;;;;;5032539;28;20819;-54
2023/08/09 03:29:19;;;;;;;4.97;2.90;;;;;;;;;;5032991;28;20568;-56
2023/08/09 03:31:46;;;;;;;9.93;2.70;;;;;;;;;;5031782;28;20470;-56
2023/08/09 03:34:13;;;;;;;3.60;2.73;;;;;;;;;;5032486;28;20458;-54
2023/08/09 03:36:40;;;;;;;5.43;2.40;;;;;;;;;;5032521;28;20442;-54
2023/08/09 03:39:08;;;;;;;6.67;2.37;;;;;;;;;;5032583;28;20434;-54
2023/08/09 03:41:36;;;;;;;3.20;1.90;;;;;;;;;;5032462;28;20488;-54
2023/08/09 03:44:04;;;;;;;3.23;2.40;;;;;;;;;;5032844;28;20439;-55
2023/08/09 03:46:31;;;;;;;3.40;2.53;;;;;;;;;;5032434;28;20947;-56
2023/08/09 03:48:58;;;;;;;4.83;2.60;;;;;;;;;;5032681;28;20561;-56
2023/08/09 03:51:26;;;;;;;2.90;2.20;;;;;;;;;;5032121;28;20474;-56
2023/08/09 03:53:53;;;;;;;3.63;2.60;;;;;;;;;;5032108;28;20446;-56
2023/08/09 03:56:20;;;;;;;3.27;2.30;;;;;;;;;;5032283;28;20472;-56
2023/08/09 03:58:49;;;;;;;2.83;1.80;;;;;;;;;;5031854;28;20443;-54
2023/08/09 04:01:16;;;;;;;3.47;2.03;;;;;;;;;;5031846;28;20532;-55
2023/08/09 04:03:43;;;;;;;3.90;2.50;;;;;;;;;;5032333;28;20496;-55
2023/08/09 04:06:12;;;;;;;3.83;2.23;;;;;;;;;;5031696;28;20621;-54
2023/08/09 04:08:39;;;;;;;2.70;2.20;;;;;;;;;;5032192;28;20561;-55
2023/08/09 04:11:07;;;;;;;4.60;1.80;;;;;;;;;;5030897;28;20544;-55
2023/08/09 04:13:34;;;;;;;3.30;2.20;;;;;;;;;;5031882;28;20465;-56
2023/08/09 04:16:03;;;;;;;2.93;2.10;;;;;;;;;;5032315;28;20521;-54
2023/08/09 04:18:30;;;;;;;3.03;2.00;;;;;;;;;;5031596;28;20461;-54
2023/08/09 04:20:57;;;;;;;3.50;2.17;;;;;;;;;;5031257;28;20978;-54
2023/08/09 04:23:24;;;;;;;4.00;2.23;;;;;;;;;;5030932;28;20512;-58
2023/08/09 04:25:52;;;;;;;3.30;2.20;;;;;;;;;;5031270;28;20470;-53
2023/08/09 04:28:19;;;;;;;4.47;2.37;;;;;;;;;;5031446;28;20505;-56
2023/08/09 04:30:47;;;;;;;3.63;2.50;;;;;;;;;;5031418;28;20461;-56
2023/08/09 04:33:16;;;;;;;3.50;2.03;;;;;;;;;;5031918;28;20450;-54
2023/08/09 04:35:44;;;;;;;4.27;2.00;;;;;;;;;;5031470;28;20838;-55
2023/08/09 04:38:11;;;;;;;3.70;2.50;;;;;;;;;;5031415;28;20472;-58
2023/08/09 04:40:39;;;;;;;3.70;2.07;;;;;;;;;;5030861;28;20553;-54
2023/08/09 04:43:07;;;;;;;2.90;2.10;;;;;;;;;;5030628;28;20450;-55
2023/08/09 04:45:35;;;;;;;3.10;2.07;;;;;;;;;;5031377;28;20521;-55
2023/08/09 04:48:05;;;;;;;4.00;2.50;;;;;;;;;;5030902;28;20776;-56
2023/08/09 04:50:33;;;;;;;4.13;2.13;;;;;;;;;;5030400;28;20458;-55
2023/08/09 04:53:01;;;;;;;4.40;2.50;;;;;;;;;;5030408;28;20454;-57
2023/08/09 04:55:28;;;;;;;4.37;1.93;;;;;;;;;;5031010;28;20438;-56
2023/08/09 04:57:55;;;;;;;3.77;3.27;;;;;;;;;;5030468;28;21014;-54
2023/08/09 05:00:22;;;;;;;4.00;2.80;;;;;;;;;;5030737;28;20549;-55
2023/08/09 05:02:50;;;;;;;3.33;2.60;;;;;;;;;;5029515;28;20469;-54
2023/08/09 05:05:17;;;;;;;3.77;2.70;;;;;;;;;;5030541;28;20938;-54
2023/08/09 05:07:46;;;;;;;4.80;3.27;;;;;;;;;;5030940;28;20724;-55
2023/08/09 05:10:13;;;;;;;3.93;2.50;;;;;;;;;;5029129;28;20577;-55
2023/08/09 05:12:40;;;;;;;4.60;2.57;;;;;;;;;;5029756;28;20533;-54
2023/08/09 05:15:08;;;;;;;3.70;2.37;;;;;;;;;;5030828;28;20517;-55
2023/08/09 05:17:35;;;;;;;4.87;2.70;;;;;;;;;;5030972;28;20470;-55
2023/08/09 05:20:02;;;;;;;5.47;3.17;;;;;;;;;;5030261;28;20454;-57
2023/08/09 05:22:30;;;;;;;3.90;2.80;;;;;;;;;;5028550;28;20466;-53
2023/08/09 05:24:58;;;;;;;4.70;2.80;;;;;;;;;;5030511;28;20518;-57
2023/08/09 05:27:26;;;;;;;3.70;2.30;;;;;;;;;;5030094;28;20442;-55
2023/08/09 05:29:53;;;;;;;3.50;2.47;;;;;;;;;;5029896;28;20486;-54
2023/08/09 05:32:20;;;;;;;4.33;2.77;;;;;;;;;;5029853;28;20537;-55
2023/08/09 05:34:47;;;;;;;3.57;2.50;;;;;;;;;;5029743;28;20529;-57
2023/08/09 05:37:15;;;;;;;3.70;2.57;;;;;;;;;;5030339;28;20885;-56
2023/08/09 05:39:42;;;;;;;3.03;2.13;;;;;;;;;;5030032;28;20950;-56
2023/08/09 05:42:10;;;;;;;4.33;3.53;;;;;;;;;;5029421;28;20497;-57
2023/08/09 05:44:38;;;;;;;3.97;2.73;;;;;;;;;;5029953;28;20469;-58
2023/08/09 05:47:05;;;;;;;3.10;2.60;;;;;;;;;;5030220;28;20560;-56
2023/08/09 05:49:33;;;;;;;3.73;2.70;;;;;;;;;;5029250;28;20884;-56
2023/08/09 05:52:00;;;;;;;3.90;2.50;;;;;;;;;;5029259;28;20529;-54
2023/08/09 05:54:27;;;;;;;3.80;2.80;;;;;;;;;;5028912;28;20485;-54
2023/08/09 05:56:54;;;;;;;5.90;2.70;;;;;;;;;;5029474;28;20442;-55
2023/08/09 05:59:23;;;;;;;4.07;2.70;;;;;;;;;;5029075;28;20921;-56
2023/08/09 06:01:50;;;;;;;4.27;2.30;;;;;;;;;;5028988;28;20545;-54
2023/08/09 06:04:18;;;;;;;3.77;2.73;;;;;;;;;;5030088;28;20459;-54
2023/08/09 06:06:46;;;;;;;4.30;2.70;;;;;;;;;;5029744;28;20450;-55
2023/08/09 06:09:13;;;;;;;3.63;2.90;;;;;;;;;;5029714;28;20477;-55
2023/08/09 06:11:41;;;;;;;4.03;2.50;;;;;;;;;;5029518;28;20537;-54
2023/08/09 06:14:08;;;;;;;4.37;2.63;;;;;;;;;;5030144;28;20442;-55
2023/08/09 06:16:37;;;;;;;4.53;3.17;;;;;;;;;;5029155;28;20535;-56
2023/08/09 06:19:04;;;;;;;5.23;2.47;;;;;;;;;;5028454;28;20522;-54
2023/08/09 06:21:31;;;;;;;3.60;2.40;;;;;;;;;;5028112;28;20803;-56
2023/08/09 06:23:59;;;;;;;3.90;2.70;;;;;;;;;;5028279;28;20442;-55
2023/08/09 06:26:26;;;;;;;3.13;2.37;;;;;;;;;;5028688;28;20441;-55
2023/08/09 06:28:53;;;;;;;4.30;2.83;;;;;;;;;;5027607;28;20565;-56
2023/08/09 06:31:20;;;;;;;7.17;2.30;;;;;;;;;;5028937;28;20462;-55
2023/08/09 06:33:49;;;;;;;4.40;2.50;;;;;;;;;;5030000;28;20939;-56
2023/08/09 06:36:16;;;;;;;3.57;2.27;;;;;;;;;;5030020;28;20529;-57
2023/08/09 06:38:43;;;;;;;2.50;2.03;;;;;;;;;;5029966;28;20529;-58
2023/08/09 06:41:10;;;;;;;3.33;2.20;;;;;;;;;;5029341;28;20990;-57
2023/08/09 06:43:38;;;;;;;4.50;2.93;;;;;;;;;;5029033;28;20446;-56
2023/08/09 06:46:05;;;;;;;4.90;2.47;;;;;;;;;;5032931;28;20473;-57
2023/08/09 06:48:33;;;;;;;3.40;2.80;;;;;;;;;;5032578;28;21049;-54
2023/08/09 06:51:01;;;;;;;5.90;2.80;;;;;;;;;;5032950;28;20476;-55
2023/08/09 06:53:29;;;;;;;3.37;2.73;;;;;;;;;;5033216;28;20751;-56
2023/08/09 06:55:56;;;;;;;3.87;2.73;;;;;;;;;;5033306;28;20453;-54
2023/08/09 06:58:24;;;;;;;4.47;3.07;;;;;;;;;;5031929;28;20836;-55
2023/08/09 07:00:52;;;;;;;4.40;2.40;;;;;;;;;;5031868;28;20473;-55
2023/08/09 07:03:20;;;;;;;6.10;2.70;;;;;;;;;;5032618;28;20537;-54
2023/08/09 07:05:47;;;;;;;4.33;2.87;;;;;;;;;;5032649;28;20458;-55
2023/08/09 07:08:16;;;;;;;4.73;3.03;;;;;;;;;;5033150;28;20442;-54
2023/08/09 07:10:43;;;;;;;4.00;3.20;;;;;;;;;;5028392;28;20526;-56
2023/08/09 07:13:10;;;;;;;3.97;3.30;;;;;;;;;;5032499;28;20517;-55
2023/08/09 07:15:37;;;;;;;4.80;3.07;;;;;;;;;;5032718;28;20474;-54
2023/08/09 07:18:05;;;;;;;5.63;2.83;;;;;;;;;;5033284;28;20442;-54
2023/08/09 07:20:32;;;;;;;3.53;2.67;;;;;;;;;;5032395;28;20466;-54
2023/08/09 07:22:59;;;;;;;4.10;2.70;;;;;;;;;;5032563;28;20492;-55
2023/08/09 07:25:28;;;;;;;3.23;2.57;;;;;;;;;;5032977;28;20512;-55
2023/08/09 07:27:55;;;;;;;5.60;2.80;;;;;;;;;;5031699;28;20533;-54
2023/08/09 07:30:22;;;;;;;4.83;2.90;;;;;;;;;;5031752;28;20909;-56
2023/08/09 07:32:50;;;;;;;5.30;3.10;;;;;;;;;;5032512;28;20478;-57
2023/08/09 07:35:17;;;;;;;5.80;2.90;;;;;;;;;;5032951;28;20481;-55
2023/08/09 07:37:46;;;;;;;4.50;3.33;;;;;;;;;;5032197;28;20453;-55
2023/08/09 07:40:14;;;;;;;3.60;3.30;;;;;;;;;;5032346;28;20557;-56
2023/08/09 07:42:43;;;;;;;5.27;3.30;;;;;;;;;;5032212;28;20526;-57
2023/08/09 07:45:12;;;;;;;4.70;3.00;;;;;;;;;;5032503;28;20446;-55
2023/08/09 07:47:39;;;;;;;4.50;3.00;;;;;;;;;;5031918;28;20962;-54
2023/08/09 07:50:07;;;;;;;4.67;3.50;;;;;;;;;;5032370;28;20486;-54
2023/08/09 07:52:34;;;;;;;4.60;3.10;;;;;;;;;;5031440;28;20438;-54
2023/08/09 07:55:02;;;;;;;4.43;2.73;;;;;;;;;;5032581;28;20456;-55
2023/08/09 07:57:29;;;;;;;3.60;3.10;;;;;;;;;;5031145;28;20537;-54
2023/08/09 07:59:58;;;;;;;4.73;3.20;;;;;;;;;;5031693;28;20579;-54
2023/08/09 08:02:25;;;;;;;6.40;3.40;;;;;;;;;;5032290;28;20439;-54
2023/08/09 08:04:52;;;;;;;4.13;2.97;;;;;;;;;;5032277;28;20467;-55
2023/08/09 08:07:19;;;;;;;3.43;2.50;;;;;;;;;;5031651;28;20492;-55
2023/08/09 08:09:46;;;;;;;4.10;2.40;;;;;;;;;;5031671;28;20568;-54
2023/08/09 08:12:14;;;;;;;5.43;3.57;;;;;;;;;;5031780;28;20454;-54
2023/08/09 08:14:41;;;;;;;4.03;2.77;;;;;;;;;;5031412;28;20524;-54
2023/08/09 08:17:10;;;;;;;3.13;2.47;;;;;;;;;;5031813;28;20935;-55
2023/08/09 08:19:37;;;;;;;5.70;2.60;;;;;;;;;;5031039;28;20451;-56
2023/08/09 08:24:39;;;;;;;3.13;2.37;;;;;;;;;;5006870;28;20458;-55
2023/08/09 08:27:07;;;;;;;3.30;2.10;;;;;;;;;;5010556;28;20477;-55
2023/08/09 08:29:34;;;;;;;3.43;2.50;;;;;;;;;;5011940;28;20511;-54
2023/08/09 08:32:01;;;;;;;3.60;2.37;;;;;;;;;;5010941;28;20983;-55
2023/08/09 08:34:31;;;;;;;4.43;3.00;;;;;;;;;;5010949;28;20444;-54
2023/08/09 08:36:59;;;;;;;3.70;2.60;;;;;;;;;;5011255;28;20548;-54
2023/08/09 08:39:28;;;;;;;5.93;2.60;;;;;;;;;;5011362;28;20489;-54
2023/08/09 08:41:56;;;;;;;4.73;2.77;;;;;;;;;;5011019;28;20505;-54
2023/08/09 08:44:24;;;;;;;4.10;2.57;;;;;;;;;;5011634;28;20891;-54
2023/08/09 08:46:51;;;;;;;4.53;3.30;;;;;;;;;;5011087;28;20446;-55
2023/08/09 08:49:20;;;;;;;3.37;3.03;;;;;;;;;;5010026;28;20485;-55
2023/08/09 08:51:52;;;;;;;4.30;3.00;;;;;;;;;;5010209;28;20920;-54
2023/08/09 08:54:20;;;;;;;4.27;2.90;;;;;;;;;;5010371;28;20451;-54
2023/08/09 08:56:47;;;;;;;4.37;2.90;;;;;;;;;;5009928;28;20517;-54
2023/08/09 08:59:15;;;;;;;4.43;3.00;;;;;;;;;;5010323;28;20471;-55
2023/08/09 09:01:43;;;;;;;3.63;2.70;;;;;;;;;;5009527;28;20550;-55
2023/08/09 09:04:10;;;;;;;3.13;2.80;;;;;;;;;;5011084;28;20450;-54
2023/08/09 09:06:37;;;;;;;3.73;2.43;;;;;;;;;;5003008;28;20479;-55
2023/08/09 09:09:13;;;;;;;5.10;2.83;;;;;;;;;;5008173;28;20486;-54
2023/08/09 09:11:40;;;;;;;4.33;2.90;;;;;;;;;;5003296;28;20470;-53
2023/08/09 09:14:11;;;;;;;4.27;3.00;;;;;;;;;;5010172;28;20522;-55
2023/08/09 09:16:38;;;;;;;5.10;2.77;;;;;;;;;;5011028;28;20470;-54
2023/08/09 09:19:05;;;;;;;3.50;2.60;;;;;;;;;;5008224;28;20526;-55
2023/08/09 09:21:34;;;;;;;7.37;3.90;;;;;;;;;;5006321;28;20553;-54
2023/08/09 09:24:03;;;;;;;4.37;3.53;;;;;;;;;;5009208;28;20538;-54
2023/08/09 09:26:32;;;;;;;5.00;3.70;;;;;;;;;;5008851;28;20435;-55
2023/08/09 09:28:59;;;;;;;3.73;3.20;;;;;;;;;;5008897;28;20614;-54
2023/08/09 09:31:35;;;;;;;4.27;2.97;;;;;;;;;;5015323;28;20510;-54
2023/08/09 09:34:02;;;;;;;3.60;3.03;;;;;;;;;;5008459;28;20531;-55
2023/08/09 09:36:30;;;;;;;4.60;3.30;;;;;;;;;;5008954;28;20444;-54
2023/08/09 09:38:57;;;;;;;3.37;2.80;;;;;;;;;;5008866;28;20439;-54
2023/08/09 09:41:24;;;;;;;3.90;3.07;;;;;;;;;;5008997;28;20878;-54
2023/08/09 09:43:53;;;;;;;7.80;5.03;;;;;;;;;;5009738;28;20541;-54
2023/08/09 09:46:21;;;;;;;5.90;3.73;;;;;;;;;;5009900;28;20529;-54
2023/08/09 09:48:49;;;;;;;6.00;3.57;;;;;;;;;;5010210;28;20440;-52
2023/08/09 09:51:18;;;;;;;4.60;2.83;;;;;;;;;;5009343;28;20991;-54
2023/08/09 09:53:46;;;;;;;4.23;3.70;;;;;;;;;;5006658;28;20460;-54
2023/08/09 09:56:13;;;;;;;4.50;3.10;;;;;;;;;;5006908;28;20816;-54
2023/08/09 09:58:41;;;;;;;4.10;3.03;;;;;;;;;;5009811;28;20950;-54
2023/08/09 10:01:10;;;;;;;3.53;3.13;;;;;;;;;;5008976;28;21029;-55
2023/08/09 10:03:39;;;;;;;5.33;3.33;;;;;;;;;;5009835;28;20435;-53
2023/08/09 10:06:10;;;;;;;3.83;3.33;;;;;;;;;;5003332;28;20542;-54
2023/08/09 10:08:39;;;;;;;4.87;3.40;;;;;;;;;;5002147;28;20526;-55
2023/08/09 10:11:07;;;;;;;4.03;3.43;;;;;;;;;;5011007;28;20515;-54
2023/08/09 10:13:35;;;;;;;5.67;3.33;;;;;;;;;;5017532;28;20500;-54
2023/08/09 10:16:05;;;;;;;4.17;3.60;;;;;;;;;;5009750;28;20828;-55
2023/08/09 10:18:36;;;;;;;4.47;3.17;;;;;;;;;;5010735;28;20474;-55
2023/08/09 10:21:04;;;;;;;5.87;2.97;;;;;;;;;;5012575;28;20503;-55
2023/08/09 10:23:33;;;;;;;4.20;3.80;;;;;;;;;;5014489;28;20513;-55
2023/08/09 10:26:00;;;;;;;3.60;3.00;;;;;;;;;;5013678;28;20516;-54
2023/08/09 10:28:48;;;;;;;6.43;4.40;;;;;;;;;;5012212;28;20505;-55
2023/08/09 10:31:15;;;;;;;6.20;3.77;;;;;;;;;;5012586;28;20489;-54
2023/08/09 10:34:04;;;;;;;5.00;3.20;;;;;;;;;;5013417;28;20529;-54
2023/08/09 10:36:35;;;;;;;5.30;4.23;;;;;;;;;;5010211;28;20475;-55
2023/08/09 10:39:09;;;;;;;5.03;3.60;;;;;;;;;;5010877;28;20530;-55
2023/08/09 10:41:36;;;;;;;7.73;3.70;;;;;;;;;;5012818;28;20779;-55
2023/08/09 10:44:04;;;;;;;4.60;3.73;;;;;;;;;;5013604;28;20459;-54
2023/08/09 10:46:34;;;;;;;4.33;3.50;;;;;;;;;;5013367;28;20435;-53
2023/08/09 10:49:04;;;;;;;4.97;3.90;;;;;;;;;;5012599;28;20439;-54
2023/08/09 10:51:33;;;;;;;5.40;4.00;;;;;;;;;;5011368;28;20479;-54
2023/08/09 10:54:02;;;;;;;5.00;4.50;;;;;;;;;;5012037;28;20470;-54
2023/08/09 10:56:34;;;;;;;4.13;3.03;;;;;;;;;;5011567;28;20466;-54
2023/08/09 10:59:06;;;;;;;4.97;4.07;;;;;;;;;;5013206;28;20474;-54
2023/08/09 11:01:33;;;;;;;3.93;3.53;;;;;;;;;;5012681;28;20467;-54
2023/08/09 11:04:00;;;;;;;6.33;3.47;;;;;;;;;;5011601;28;20853;-53
2023/08/09 11:06:36;;;;;;;4.77;3.97;;;;;;;;;;5012573;28;20509;-55
2023/08/09 11:09:08;;;;;;;3.93;3.50;;;;;;;;;;5013547;28;20442;-55
2023/08/09 11:11:35;;;;;;;3.70;3.20;;;;;;;;;;5011152;28;20506;-55
2023/08/09 11:14:03;;;;;;;6.23;3.47;;;;;;;;;;5011146;28;20964;-55
2023/08/09 11:16:30;;;;;;;5.73;3.43;;;;;;;;;;5011717;28;20582;-55
2023/08/09 11:19:01;;;;;;;4.77;3.50;;;;;;;;;;5011714;28;20526;-54
2023/08/09 11:21:29;;;;;;;3.87;2.97;;;;;;;;;;5011595;28;20485;-54
2023/08/09 11:23:59;;;;;;;5.70;3.00;;;;;;;;;;5012331;28;20951;-54
2023/08/09 11:26:27;;;;;;;3.70;2.97;;;;;;;;;;5012518;28;20466;-55
2023/08/09 11:28:55;;;;;;;3.50;2.87;;;;;;;;;;5013002;28;20486;-55
2023/08/09 11:31:23;;;;;;;5.40;3.63;;;;;;;;;;5011036;28;20523;-55
2023/08/09 11:33:50;;;;;;;4.83;3.10;;;;;;;;;;5013010;28;20439;-55
2023/08/09 11:36:17;;;;;;;4.60;2.70;;;;;;;;;;5012602;28;20818;-55
2023/08/09 11:38:44;;;;;;;5.20;3.47;;;;;;;;;;5012962;28;21008;-54
2023/08/09 11:41:16;;;;;;;4.03;3.20;;;;;;;;;;5011982;28;20495;-55
2023/08/09 11:43:43;;;;;;;4.57;3.40;;;;;;;;;;5012688;28;20882;-55
2023/08/09 11:46:11;;;;;;;5.10;3.23;;;;;;;;;;5012646;28;20440;-54
2023/08/09 11:48:41;;;;;;;3.50;3.20;;;;;;;;;;5012792;28;20435;-54
2023/08/09 11:51:09;;;;;;;5.20;3.70;;;;;;;;;;5010463;28;20493;-53
2023/08/09 11:53:37;;;;;;;4.67;3.07;;;;;;;;;;5008128;28;20481;-55
2023/08/09 11:56:05;;;;;;;3.60;2.90;;;;;;;;;;5010120;28;20527;-55
2023/08/09 11:58:35;;;;;;;5.20;3.43;;;;;;;;;;5011959;28;20810;-54
2023/08/09 12:01:13;;;;;;;6.93;3.70;;;;;;;;;;5010688;28;20470;-54
2023/08/09 12:03:40;;;;;;;4.50;4.00;;;;;;;;;;5011300;28;20537;-55
2023/08/09 12:06:08;;;;;;;5.87;3.60;;;;;;;;;;5010535;28;20451;-54
2023/08/09 12:08:36;;;;;;;4.63;3.53;;;;;;;;;;5009777;28;20528;-54
2023/08/09 12:11:03;;;;;;;5.63;3.00;;;;;;;;;;5011751;28;20569;-54
2023/08/09 12:13:31;;;;;;;4.27;3.37;;;;;;;;;;5011913;28;20479;-54
2023/08/09 12:16:00;;;;;;;4.53;3.30;;;;;;;;;;5010868;28;20526;-54
2023/08/09 12:18:28;;;;;;;4.20;2.53;;;;;;;;;;5009529;28;20447;-54
2023/08/09 12:20:56;;;;;;;3.63;3.10;;;;;;;;;;5006551;28;20491;-54
2023/08/09 12:23:23;;;;;;;3.30;2.70;;;;;;;;;;5005504;28;20552;-54
2023/08/09 12:25:50;;;;;;;4.33;3.50;;;;;;;;;;5006396;28;20490;-55
2023/08/09 12:28:17;;;;;;;5.17;3.40;;;;;;;;;;5008096;28;20912;-54
2023/08/09 12:30:45;;;;;;;5.10;3.47;;;;;;;;;;5008579;28;20573;-55
2023/08/09 12:33:13;;;;;;;3.67;2.97;;;;;;;;;;5007199;28;20456;-54
2023/08/09 12:35:41;;;;;;;4.20;3.10;;;;;;;;;;5010893;28;20577;-54
2023/08/09 12:38:09;;;;;;;3.87;3.20;;;;;;;;;;5013744;28;20455;-53
2023/08/09 12:40:38;;;;;;;4.40;3.17;;;;;;;;;;5012386;28;20487;-53
2023/08/09 12:43:06;;;;;;;8.53;3.10;;;;;;;;;;5007376;28;20548;-54
2023/08/09 12:45:33;;;;;;;3.07;2.63;;;;;;;;;;5004379;28;20464;-54
2023/08/09 12:48:00;;;;;;;2.73;2.47;;;;;;;;;;5007209;28;20553;-54
2023/08/09 12:50:29;;;;;;;3.30;3.00;;;;;;;;;;5010017;28;20868;-54
2023/08/09 12:52:56;;;;;;;5.40;3.00;;;;;;;;;;5011303;28;20481;-54
2023/08/09 12:55:23;;;;;;;4.13;3.07;;;;;;;;;;5009823;28;20531;-54
2023/08/09 12:57:51;;;;;;;3.73;2.83;;;;;;;;;;5011104;28;20447;-54
2023/08/09 13:00:20;;;;;;;5.03;3.00;;;;;;;;;;5009325;28;21051;-54
2023/08/09 13:02:47;;;;;;;3.90;3.00;;;;;;;;;;5010531;28;20470;-54
2023/08/09 13:05:15;;;;;;;6.13;3.40;;;;;;;;;;5008742;28;20482;-54
2023/08/09 13:07:44;;;;;;;6.23;3.37;;;;;;;;;;5010852;28;20467;-53
2023/08/09 13:10:11;;;;;;;4.93;3.00;;;;;;;;;;5009234;28;20873;-53
2023/08/09 13:12:39;;;;;;;4.30;3.10;;;;;;;;;;5010400;28;20439;-53
2023/08/09 13:15:08;;;;;;;3.50;3.07;;;;;;;;;;5011029;28;20501;-53
2023/08/09 13:17:35;;;;;;;4.13;3.67;;;;;;;;;;5011062;28;20439;-53
2023/08/09 13:20:02;;;;;;;5.17;3.23;;;;;;;;;;5010400;28;20794;-53
2023/08/09 13:22:29;;;;;;;4.40;3.40;;;;;;;;;;5010760;28;20497;-53
2023/08/09 13:24:59;;;;;;;4.10;3.70;;;;;;;;;;5011007;28;20501;-52
2023/08/09 13:27:26;;;;;;;4.90;3.77;;;;;;;;;;5011031;28;20443;-53
2023/08/09 13:29:54;;;;;;;4.53;4.13;;;;;;;;;;5010844;28;20530;-53
2023/08/09 13:32:21;;;;;;;5.83;4.33;;;;;;;;;;5010689;28;20570;-53
2023/08/09 13:34:49;;;;;;;4.50;4.10;;;;;;;;;;5009978;28;21007;-53
2023/08/09 13:37:16;;;;;;;4.73;4.20;;;;;;;;;;5009803;28;20538;-53
2023/08/09 13:39:44;;;;;;;4.73;4.00;;;;;;;;;;5010230;28;20489;-53
2023/08/09 13:42:12;;;;;;;4.80;4.10;;;;;;;;;;5010298;28;20455;-52
2023/08/09 13:44:39;;;;;;;5.53;4.20;;;;;;;;;;5010544;28;20467;-53
2023/08/09 13:47:07;;;;;;;5.50;4.30;;;;;;;;;;5010341;28;20522;-52
2023/08/09 13:49:34;;;;;;;7.00;4.10;;;;;;;;;;5010633;28;20462;-52
2023/08/09 13:52:01;;;;;;;5.50;4.20;;;;;;;;;;5010178;28;20542;-53
2023/08/09 13:54:28;;;;;;;4.60;4.10;;;;;;;;;;5009873;28;20498;-53
2023/08/09 13:56:56;;;;;;;4.57;4.03;;;;;;;;;;5010672;28;21144;-53
2023/08/09 13:59:24;;;;;;;6.13;4.87;;;;;;;;;;5010658;28;20482;-52
2023/08/09 14:01:52;;;;;;;6.13;4.30;;;;;;;;;;5008839;28;20916;-52
2023/08/09 14:04:19;;;;;;;6.70;4.03;;;;;;;;;;5009682;28;20918;-52
2023/08/09 14:06:47;;;;;;;9.23;4.40;;;;;;;;;;5010140;28;21021;-52
2023/08/09 14:09:14;;;;;;;4.03;3.63;;;;;;;;;;5009963;28;20449;-52
2023/08/09 14:11:41;;;;;;;4.80;4.30;;;;;;;;;;5009005;28;20565;-51
2023/08/09 14:14:09;;;;;;;6.03;4.50;;;;;;;;;;5009485;28;20450;-52
2023/08/09 14:16:37;;;;;;;5.93;4.10;;;;;;;;;;5009392;28;20893;-52
2023/08/09 14:19:05;;;;;;;4.70;4.17;;;;;;;;;;5010283;28;20435;-52
2023/08/09 14:21:32;;;;;;;4.33;3.40;;;;;;;;;;5002842;23;20488;-84
2023/08/09 14:23:59;;;;;;;4.17;3.77;;;;;;;;;;4992060;28;20460;-84
2023/08/09 14:26:26;;;;;;;4.87;4.40;;;;;;;;;;4959563;28;20457;-83
2023/08/09 14:28:54;;;;;;;4.27;3.87;;;;;;;;;;4975211;28;20447;-83
2023/08/09 14:31:21;;;;;;;5.47;4.53;;;;;;;;;;4963345;28;20509;-84
2023/08/09 14:33:50;;;;;;;5.53;4.03;;;;;;;;;;4967638;28;20453;-84
2023/08/09 14:36:17;;;;;;;4.13;3.70;;;;;;;;;;4971193;28;20469;-81
2023/08/09 14:38:44;;;;;;;4.50;4.10;;;;;;;;;;4956726;28;20477;-82
2023/08/09 14:41:11;;;;;;;4.30;3.73;;;;;;;;;;4956198;28;20476;-83
2023/08/09 14:43:39;;;;;;;5.33;4.00;;;;;;;;;;4955820;28;20446;-83
2023/08/09 14:46:06;;;;;;;6.50;3.73;;;;;;;;;;4955809;28;20899;-83
2023/08/09 14:48:33;;;;;;;5.83;4.40;;;;;;;;;;4965163;28;20573;-83
2023/08/09 14:51:02;;;;;;;5.20;4.40;;;;;;;;;;4973453;28;20501;-83